Time;durP1;ratioP1;P1;durP2;ratioP2;P2;SDS_P1;SDS_P2;PMS_P1;PMS_P2;Temp;Humidity;BMP_temperature;BMP_pressure;BME280_temperature;BME280_humidity;BME280_pressure;Samples;Min_cycle;Max_cycle;Signal;HPM_P1;HPM_P2
2021/01/08 00:02:22;;;;;;;8.93;6.73;;;;;;;-2.32;83.58;95164.06;5094567;28;20179;-75
2021/01/08 00:04:48;;;;;;;11.40;6.50;;;;;;;-2.34;83.97;95163.31;5066161;28;20257;-75
2021/01/08 00:07:13;;;;;;;13.97;7.87;;;;;;;-2.30;84.03;95168.19;5051373;28;20213;-75
2021/01/08 00:09:39;;;;;;;13.33;7.47;;;;;;;-2.29;83.93;95171.56;5076105;28;20191;-75
2021/01/08 00:12:05;;;;;;;11.60;7.83;;;;;;;-2.36;83.54;95168.50;5076520;28;20181;-75
2021/01/08 00:14:31;;;;;;;15.80;8.00;;;;;;;-2.33;83.82;95170.06;5053913;28;20552;-75
2021/01/08 00:16:56;;;;;;;13.93;8.13;;;;;;;-2.37;83.83;95176.22;5051169;28;20190;-76
2021/01/08 00:19:21;;;;;;;13.70;8.40;;;;;;;-2.40;84.02;95172.06;5075981;28;20655;-75
2021/01/08 00:21:47;;;;;;;11.60;7.53;;;;;;;-2.37;83.73;95171.94;5076424;28;20256;-75
2021/01/08 00:24:13;;;;;;;13.23;7.80;;;;;;;-2.37;83.95;95168.56;5076377;28;20207;-76
2021/01/08 00:26:39;;;;;;;10.50;6.87;;;;;;;-2.36;83.64;95172.75;5059107;28;20629;-76
2021/01/08 00:29:05;;;;;;;11.93;7.60;;;;;;;-2.41;83.90;95164.53;5063871;28;20637;-75
2021/01/08 00:31:44;;;;;;;11.87;7.30;;;;;;;-2.39;83.67;95163.53;5056018;28;20205;-76
2021/01/08 00:34:10;;;;;;;13.00;8.07;;;;;;;-2.42;83.64;95165.44;5039401;28;20221;-75
2021/01/08 00:36:36;;;;;;;10.73;7.10;;;;;;;-2.45;83.26;95163.88;5058816;28;20235;-75
2021/01/08 00:39:04;;;;;;;12.40;7.53;;;;;;;-2.43;83.32;95156.16;5060342;28;20244;-75
2021/01/08 00:41:33;;;;;;;13.50;7.10;;;;;;;-2.41;83.17;95159.44;5073873;28;20211;-75
2021/01/08 00:44:01;;;;;;;15.23;8.00;;;;;;;-2.48;83.02;95153.03;5038955;28;20211;-75
2021/01/08 00:46:31;;;;;;;10.50;6.83;;;;;;;-2.43;83.32;95156.16;5056101;28;20254;-75
2021/01/08 00:48:56;;;;;;;12.27;7.20;;;;;;;-2.50;82.74;95157.38;5050492;28;20176;-75
2021/01/08 00:51:22;;;;;;;13.27;7.30;;;;;;;-2.47;82.88;95154.66;5093900;28;20191;-76
2021/01/08 00:53:48;;;;;;;16.40;9.07;;;;;;;-2.63;82.58;95152.94;5058960;28;20185;-75
2021/01/08 00:56:18;;;;;;;14.27;8.80;;;;;;;-2.64;82.95;95151.28;5075597;28;20183;-76
2021/01/08 00:58:43;;;;;;;10.57;7.80;;;;;;;-2.69;82.28;95150.69;5080734;28;20188;-75
2021/01/08 01:01:08;;;;;;;11.13;8.00;;;;;;;-2.78;82.50;95150.34;5071705;28;20536;-75
2021/01/08 01:03:33;;;;;;;10.27;7.33;;;;;;;-2.84;83.08;95161.63;5075336;28;20211;-75
2021/01/08 01:05:59;;;;;;;15.73;9.40;;;;;;;-2.91;83.24;95153.50;5075614;28;20229;-75
2021/01/08 01:08:24;;;;;;;14.00;7.50;;;;;;;-2.93;83.41;95152.72;5064422;28;20648;-75
2021/01/08 01:10:49;;;;;;;12.30;7.77;;;;;;;-2.95;83.01;95152.00;5061216;28;20197;-75
2021/01/08 01:13:15;;;;;;;12.60;8.07;;;;;;;-2.95;82.49;95149.47;5055257;28;20191;-75
2021/01/08 01:15:40;;;;;;;13.30;7.87;;;;;;;-2.91;82.89;95148.41;5073157;28;20183;-75
2021/01/08 01:18:05;;;;;;;9.93;7.23;;;;;;;-2.90;82.73;95146.69;5053212;28;20273;-75
2021/01/08 01:20:30;;;;;;;12.07;7.23;;;;;;;-2.92;82.91;95153.56;5099589;28;20175;-75
2021/01/08 01:22:56;;;;;;;11.87;7.43;;;;;;;-2.82;82.66;95159.03;5093186;28;20621;-76
2021/01/08 01:25:21;;;;;;;15.10;8.10;;;;;;;-2.87;82.20;95152.44;5093316;28;20217;-75
2021/01/08 01:27:46;;;;;;;18.53;9.43;;;;;;;-2.82;82.30;95143.78;5092874;28;20202;-75
2021/01/08 01:30:12;;;;;;;8.90;6.00;;;;;;;-2.89;81.99;95150.88;5083124;28;20201;-75
2021/01/08 01:32:38;;;;;;;9.73;6.03;;;;;;;-2.92;82.44;95153.56;5084358;28;20344;-75
2021/01/08 01:35:03;;;;;;;11.27;6.00;;;;;;;-2.89;82.63;95158.50;5092929;28;20259;-74
2021/01/08 01:37:29;;;;;;;11.23;6.07;;;;;;;-2.91;82.53;95158.59;5092821;28;20203;-75
2021/01/08 01:39:54;;;;;;;10.33;6.60;;;;;;;-2.90;82.97;95150.06;5085163;28;20187;-75
2021/01/08 01:42:19;;;;;;;9.37;6.17;;;;;;;-2.84;82.77;95156.53;5062556;28;20191;-75
2021/01/08 01:44:45;;;;;;;11.00;6.10;;;;;;;-2.79;82.75;95162.22;5072563;28;20187;-75
2021/01/08 01:47:10;;;;;;;10.77;6.10;;;;;;;-2.81;83.02;95160.66;5054607;28;20201;-75
2021/01/08 01:49:35;;;;;;;9.87;6.03;;;;;;;-2.82;83.16;95156.50;5054409;28;20229;-75
2021/01/08 01:52:00;;;;;;;10.60;5.97;;;;;;;-2.82;83.07;95154.75;5078869;28;20191;-75
2021/01/08 01:54:26;;;;;;;9.73;6.40;;;;;;;-2.78;83.11;95153.69;5091341;28;20269;-74
2021/01/08 01:56:51;;;;;;;10.63;5.93;;;;;;;-2.77;83.14;95152.78;5074319;28;20614;-75
2021/01/08 01:59:16;;;;;;;11.47;6.20;;;;;;;-2.75;83.24;95156.06;5074154;28;20182;-75
2021/01/08 02:01:42;;;;;;;8.00;5.63;;;;;;;-2.68;83.15;95157.41;5064949;28;20197;-75
2021/01/08 02:04:07;;;;;;;8.53;6.13;;;;;;;-2.72;83.14;95163.56;5064961;28;20199;-75
2021/01/08 02:06:34;;;;;;;9.87;6.07;;;;;;;-2.65;83.16;95167.44;5037568;28;20203;-75
2021/01/08 02:09:03;;;;;;;10.97;5.97;;;;;;;-2.62;82.96;95161.38;5053946;28;20190;-76
2021/01/08 02:11:30;;;;;;;10.40;5.70;;;;;;;-2.67;83.05;95165.84;5053091;28;20716;-74
2021/01/08 02:14:09;;;;;;;10.13;6.17;;;;;;;-2.66;82.57;95164.97;5039853;28;20287;-75
2021/01/08 02:16:35;;;;;;;11.50;6.10;;;;;;;-2.70;82.89;95166.84;5054050;28;20258;-75
2021/01/08 02:19:02;;;;;;;9.07;5.40;;;;;;;-2.65;82.90;95158.97;5053955;28;20647;-75
2021/01/08 02:21:35;;;;;;;9.47;5.83;;;;;;;-2.67;83.64;95165.84;5054141;28;20175;-75
2021/01/08 02:24:10;;;;;;;8.30;5.63;;;;;;;-2.66;83.05;95167.50;5059910;28;20295;-75
2021/01/08 02:26:36;;;;;;;9.13;5.30;;;;;;;-2.71;83.36;95162.66;5034327;28;20702;-74
2021/01/08 02:29:02;;;;;;;9.40;5.50;;;;;;;-2.69;83.44;95165.94;5033872;28;20181;-74
2021/01/08 02:31:27;;;;;;;9.20;5.40;;;;;;;-2.67;83.50;95168.41;5034028;28;20234;-75
2021/01/08 02:33:53;;;;;;;11.53;5.83;;;;;;;-2.61;83.75;95168.91;5046742;28;20262;-75
2021/01/08 02:36:19;;;;;;;8.80;5.43;;;;;;;-2.61;83.32;95165.56;5059818;28;20186;-75
2021/01/08 02:38:44;;;;;;;9.87;5.60;;;;;;;-2.59;83.35;95168.84;5073538;28;20242;-74
2021/01/08 02:41:10;;;;;;;8.73;5.50;;;;;;;-2.54;83.22;95173.72;5056970;28;20646;-75
2021/01/08 02:43:37;;;;;;;7.80;5.87;;;;;;;-2.52;83.33;95165.09;5049667;28;20570;-75
2021/01/08 02:46:03;;;;;;;8.90;5.57;;;;;;;-2.55;83.49;95164.44;5095434;28;20180;-75
2021/01/08 02:48:28;;;;;;;10.33;5.87;;;;;;;-2.57;83.46;95164.50;5072791;28;20662;-78
2021/01/08 02:50:54;;;;;;;8.37;5.67;;;;;;;-2.47;83.67;95168.22;5073554;28;20230;-74
2021/01/08 02:53:21;;;;;;;8.07;5.23;;;;;;;-2.51;83.57;95174.34;5091586;28;20191;-75
2021/01/08 02:56:07;;;;;;;11.10;5.60;;;;;;;-2.53;83.84;95172.81;5062824;28;20235;-76
2021/01/08 02:58:34;;;;;;;9.17;5.83;;;;;;;-2.50;83.52;95175.19;5073168;28;20692;-76
2021/01/08 03:01:00;;;;;;;9.00;5.27;;;;;;;-2.44;83.02;95170.59;5073626;28;20594;-76
2021/01/08 03:03:27;;;;;;;9.17;5.60;;;;;;;-2.47;83.67;95172.47;5073549;28;20204;-75
2021/01/08 03:05:53;;;;;;;10.17;6.60;;;;;;;-2.50;83.52;95170.09;5065307;28;20653;-75
2021/01/08 03:08:18;;;;;;;9.67;5.87;;;;;;;-2.46;83.28;95171.59;5085744;28;20207;-74
2021/01/08 03:10:43;;;;;;;9.20;5.57;;;;;;;-2.42;83.27;95165.44;5073247;28;20188;-76
2021/01/08 03:13:09;;;;;;;8.27;5.83;;;;;;;-2.42;83.09;95160.34;5073622;28;20581;-75
2021/01/08 03:15:35;;;;;;;10.27;5.57;;;;;;;-2.40;83.16;95169.53;5051186;28;20187;-75
2021/01/08 03:18:00;;;;;;;8.97;5.30;;;;;;;-2.38;83.11;95169.47;5055798;28;20218;-75
2021/01/08 03:20:25;;;;;;;6.63;4.93;;;;;;;-2.43;83.19;95161.25;5068362;28;20184;-75
2021/01/08 03:22:51;;;;;;;7.97;5.60;;;;;;;-2.41;83.24;95159.44;5088504;28;20675;-75
2021/01/08 03:25:16;;;;;;;8.77;5.93;;;;;;;-2.44;83.12;95162.16;5073602;28;20266;-75
2021/01/08 03:27:41;;;;;;;8.00;5.63;;;;;;;-2.46;83.14;95159.69;5074007;28;20626;-76
2021/01/08 03:30:07;;;;;;;11.83;5.87;;;;;;;-2.44;83.61;95162.16;5070897;28;20184;-74
2021/01/08 03:32:33;;;;;;;9.23;6.03;;;;;;;-2.46;82.63;95156.34;5053282;28;20180;-75
2021/01/08 03:34:59;;;;;;;8.47;5.57;;;;;;;-2.49;82.83;95156.47;5053183;28;20186;-75
2021/01/08 03:37:24;;;;;;;9.63;5.77;;;;;;;-2.48;83.20;95143.69;5065683;28;20217;-75
2021/01/08 03:39:49;;;;;;;5.47;4.07;;;;;;;-2.42;82.83;95150.19;5067094;28;20569;-74
2021/01/08 03:42:15;;;;;;;8.70;5.77;;;;;;;-2.44;83.26;95152.00;5071318;28;20180;-75
2021/01/08 03:44:40;;;;;;;8.57;5.23;;;;;;;-2.44;83.02;95152.00;5053195;28;20250;-74
2021/01/08 03:47:05;;;;;;;8.47;5.20;;;;;;;-2.43;82.57;95146.81;5052935;28;20204;-75
2021/01/08 03:49:30;;;;;;;7.53;4.63;;;;;;;-2.40;82.69;95148.38;5050615;28;20236;-75
2021/01/08 03:51:56;;;;;;;8.00;5.27;;;;;;;-2.42;82.34;95147.63;5052997;28;20652;-74
2021/01/08 03:54:21;;;;;;;7.57;4.63;;;;;;;-2.43;82.82;95144.28;5071871;28;20244;-74
2021/01/08 03:56:46;;;;;;;10.00;5.17;;;;;;;-2.41;82.99;95144.19;5056705;28;20197;-76
2021/01/08 03:59:12;;;;;;;6.97;5.03;;;;;;;-2.42;83.09;95140.00;5087892;28;20198;-75
2021/01/08 04:01:37;;;;;;;5.83;4.33;;;;;;;-2.38;82.35;95144.06;5074462;28;20183;-75
2021/01/08 04:04:02;;;;;;;8.20;5.17;;;;;;;-2.36;82.45;95143.06;5056289;28;20219;-74
2021/01/08 04:06:28;;;;;;;6.17;4.30;;;;;;;-2.41;82.99;95141.66;5056449;28;20193;-75
2021/01/08 04:08:55;;;;;;;6.67;4.47;;;;;;;-2.42;82.91;95134.94;5054229;28;20200;-76
2021/01/08 04:11:20;;;;;;;6.07;4.43;;;;;;;-2.42;82.82;95140.81;5048781;28;20192;-75
2021/01/08 04:13:45;;;;;;;5.57;4.17;;;;;;;-2.36;82.34;95137.97;5056453;28;20240;-74
2021/01/08 04:16:13;;;;;;;6.27;4.40;;;;;;;-2.38;82.41;95138.97;5056448;28;20703;-75
2021/01/08 04:18:39;;;;;;;6.00;4.17;;;;;;;-2.42;82.89;95132.38;5073880;28;20183;-75
2021/01/08 04:21:04;;;;;;;4.90;4.07;;;;;;;-2.44;82.65;95129.94;5072175;28;20190;-75
2021/01/08 04:23:29;;;;;;;7.37;4.70;;;;;;;-2.43;82.58;95131.56;5056000;28;20728;-75
2021/01/08 04:25:55;;;;;;;5.97;4.23;;;;;;;-2.39;83.22;95132.22;5056317;28;20177;-75
2021/01/08 04:28:20;;;;;;;6.43;4.43;;;;;;;-2.44;83.00;95127.38;5056108;28;20206;-75
2021/01/08 04:30:45;;;;;;;7.30;4.23;;;;;;;-2.44;82.98;95136.72;5072705;28;20187;-76
2021/01/08 04:33:11;;;;;;;5.53;3.53;;;;;;;-2.42;82.67;95133.19;5073752;28;20745;-74
2021/01/08 04:35:36;;;;;;;5.07;3.53;;;;;;;-2.42;83.10;95129.84;5039383;28;20215;-75
2021/01/08 04:38:01;;;;;;;6.40;3.63;;;;;;;-2.47;83.18;95136.88;5055895;28;20200;-74
2021/01/08 04:40:27;;;;;;;6.83;4.23;;;;;;;-2.45;82.77;95135.09;5073676;28;20219;-74
2021/01/08 04:42:52;;;;;;;6.33;4.27;;;;;;;-2.48;82.98;95132.69;5038018;28;20297;-75
2021/01/08 04:45:17;;;;;;;7.33;3.77;;;;;;;-2.47;83.64;95134.31;5055852;28;20219;-74
2021/01/08 04:47:44;;;;;;;7.40;4.43;;;;;;;-2.51;83.93;95127.78;5055676;28;20196;-75
2021/01/08 04:50:10;;;;;;;5.47;4.70;;;;;;;-2.53;83.79;95130.41;5055621;28;20182;-75
2021/01/08 04:52:35;;;;;;;7.40;3.50;;;;;;;-2.54;83.82;95126.22;5037844;28;20184;-75
2021/01/08 04:55:01;;;;;;;5.13;3.40;;;;;;;-2.49;83.53;95123.41;5073512;28;20238;-75
2021/01/08 04:57:27;;;;;;;4.00;3.37;;;;;;;-2.49;84.05;95131.06;5055729;28;20279;-74
2021/01/08 04:59:52;;;;;;;4.97;3.70;;;;;;;-2.50;83.83;95130.22;5038787;28;20189;-74
2021/01/08 05:02:18;;;;;;;8.10;3.73;;;;;;;-2.52;83.55;95134.59;5037617;28;20272;-74
2021/01/08 05:04:44;;;;;;;5.63;4.37;;;;;;;-2.51;84.00;95133.69;5055298;28;20217;-75
2021/01/08 05:07:09;;;;;;;5.50;3.80;;;;;;;-2.53;83.99;95129.59;5054384;28;20211;-75
2021/01/08 05:09:34;;;;;;;4.97;3.50;;;;;;;-2.52;83.92;95128.69;5054972;28;20209;-75
2021/01/08 05:12:00;;;;;;;7.73;3.40;;;;;;;-2.46;83.69;95126.66;5055325;28;20187;-75
2021/01/08 05:14:26;;;;;;;5.00;3.27;;;;;;;-2.48;83.85;95125.06;5071107;28;20187;-75
2021/01/08 05:16:54;;;;;;;4.47;3.10;;;;;;;-2.50;83.59;95122.59;5054993;28;20695;-74
2021/01/08 05:19:22;;;;;;;5.03;3.70;;;;;;;-2.49;83.87;95121.69;5038267;28;20179;-75
2021/01/08 05:21:48;;;;;;;4.40;3.57;;;;;;;-2.49;83.88;95125.97;5055177;28;20177;-74
2021/01/08 05:24:13;;;;;;;4.93;3.20;;;;;;;-2.47;84.01;95129.25;5053144;28;20215;-74
2021/01/08 05:26:38;;;;;;;4.30;3.13;;;;;;;-2.47;83.69;95124.16;5072823;28;20247;-75
2021/01/08 05:29:04;;;;;;;6.20;4.37;;;;;;;-2.45;83.39;95122.38;5038120;28;20179;-75
2021/01/08 05:31:31;;;;;;;4.00;2.93;;;;;;;-2.47;83.02;95126.69;5072746;28;20210;-75
2021/01/08 05:33:57;;;;;;;6.47;3.70;;;;;;;-2.49;83.93;95120.88;5055001;28;20218;-75
2021/01/08 05:36:23;;;;;;;4.40;3.10;;;;;;;-2.49;83.68;95125.97;5069831;28;20655;-75
2021/01/08 05:38:51;;;;;;;5.93;4.00;;;;;;;-2.48;83.63;95118.25;5054694;28;20198;-75
2021/01/08 05:41:16;;;;;;;4.27;3.53;;;;;;;-2.47;83.64;95122.47;5054841;28;20647;-76
2021/01/08 05:43:45;;;;;;;6.07;4.10;;;;;;;-2.51;82.86;95118.44;5054688;28;20291;-76
2021/01/08 05:46:24;;;;;;;4.60;3.50;;;;;;;-2.51;82.68;95130.31;5052479;28;20284;-75
2021/01/08 05:48:54;;;;;;;4.83;3.30;;;;;;;-2.50;83.24;95130.22;5037748;28;20180;-75
2021/01/08 05:51:21;;;;;;;7.43;3.47;;;;;;;-2.49;83.21;95124.25;5054678;28;20592;-74
2021/01/08 05:53:48;;;;;;;4.23;3.13;;;;;;;-2.37;82.63;95132.97;5054568;28;20184;-75
2021/01/08 05:56:21;;;;;;;4.93;3.27;;;;;;;-2.47;83.35;95135.19;5052329;28;20236;-75
2021/01/08 05:58:47;;;;;;;3.50;2.77;;;;;;;-2.48;83.58;95128.41;5054140;28;20182;-77
2021/01/08 06:01:13;;;;;;;5.00;3.47;;;;;;;-2.48;83.43;95128.41;5054407;28;20198;-75
2021/01/08 06:03:39;;;;;;;5.37;2.97;;;;;;;-2.44;83.32;95136.72;5037639;28;20595;-75
2021/01/08 06:06:05;;;;;;;3.10;2.80;;;;;;;-2.50;83.50;95134.50;5071474;28;20180;-76
2021/01/08 06:08:32;;;;;;;4.37;3.30;;;;;;;-2.50;83.76;95139.59;5053338;28;20245;-76
2021/01/08 06:10:59;;;;;;;3.60;3.20;;;;;;;-2.48;83.93;95140.31;5054305;28;20186;-75
2021/01/08 06:13:31;;;;;;;3.07;2.73;;;;;;;-2.50;83.89;95142.13;5072049;28;20172;-75
2021/01/08 06:15:56;;;;;;;3.20;2.90;;;;;;;-2.48;84.14;95147.94;5054211;28;20643;-75
2021/01/08 06:18:24;;;;;;;4.77;3.17;;;;;;;-2.49;84.17;95146.31;5052519;28;20210;-75
2021/01/08 06:20:52;;;;;;;4.87;3.00;;;;;;;-2.47;83.42;95142.81;5053771;28;20537;-75
2021/01/08 06:23:36;;;;;;;5.00;3.37;;;;;;;-2.47;84.11;95149.59;5054048;28;20612;-75
2021/01/08 06:26:03;;;;;;;4.07;2.60;;;;;;;-2.50;84.19;95154.84;5071854;28;20182;-75
2021/01/08 06:28:40;;;;;;;2.90;2.23;;;;;;;-2.49;84.03;95144.59;5052558;28;20211;-75
2021/01/08 06:31:11;;;;;;;3.70;2.83;;;;;;;-2.47;84.23;95152.97;5072106;28;20282;-74
2021/01/08 06:33:37;;;;;;;3.70;2.60;;;;;;;-2.46;84.49;95153.78;5037371;28;20211;-75
2021/01/08 06:36:14;;;;;;;3.67;2.53;;;;;;;-2.43;83.81;95157.00;5053764;28;20175;-74
2021/01/08 06:38:45;;;;;;;2.40;2.20;;;;;;;-2.46;84.16;95161.44;5035861;28;20205;-74
2021/01/08 06:41:13;;;;;;;6.90;4.60;;;;;;;-2.51;84.81;95158.28;5053710;28;20233;-74
2021/01/08 06:43:40;;;;;;;23.03;10.80;;;;;;;-2.52;84.45;95162.56;5053747;28;20306;-74
2021/01/08 06:46:33;;;;;;;57.07;19.97;;;;;;;-2.54;84.74;95159.28;5053641;28;20174;-75
2021/01/08 06:49:00;;;;;;;36.23;13.27;;;;;;;-2.54;84.41;95159.28;5068755;28;20207;-75
2021/01/08 06:51:31;;;;;;;17.83;10.00;;;;;;;-2.52;84.60;95166.81;5070081;28;20179;-75
2021/01/08 06:53:58;;;;;;;9.90;6.47;;;;;;;-2.48;84.67;95164.03;5071562;28;20178;-74
2021/01/08 06:56:28;;;;;;;6.20;4.53;;;;;;;-2.55;85.06;95172.06;5053578;28;20175;-74
2021/01/08 06:58:56;;;;;;;5.53;4.17;;;;;;;-2.55;85.07;95166.97;5071087;28;20179;-74
2021/01/08 07:01:31;;;;;;;5.53;4.37;;;;;;;-2.55;85.03;95160.16;5051925;28;20191;-74
2021/01/08 07:03:57;;;;;;;4.17;3.40;;;;;;;-2.56;85.38;95163.63;5053460;28;20301;-75
2021/01/08 07:06:22;;;;;;;4.60;3.77;;;;;;;-2.47;85.18;95173.31;5036742;28;20190;-74
2021/01/08 07:08:48;;;;;;;4.80;3.93;;;;;;;-2.51;85.19;95169.28;5053235;28;20225;-74
2021/01/08 07:11:24;;;;;;;4.97;3.80;;;;;;;-2.48;85.28;95173.38;5051485;28;20703;-74
2021/01/08 07:13:50;;;;;;;4.70;3.57;;;;;;;-2.47;85.26;95175.88;5036841;28;20182;-74
2021/01/08 07:16:20;;;;;;;5.83;4.17;;;;;;;-2.47;84.85;95175.00;5071289;28;20175;-74
2021/01/08 07:18:45;;;;;;;4.67;3.53;;;;;;;-2.54;85.35;95179.59;5053198;28;20196;-74
2021/01/08 07:21:22;;;;;;;4.93;4.10;;;;;;;-2.53;85.03;95175.34;5069922;28;20195;-74
2021/01/08 07:23:48;;;;;;;4.77;3.73;;;;;;;-2.43;84.82;95182.41;5036530;28;20223;-74
2021/01/08 07:26:17;;;;;;;5.87;4.70;;;;;;;-2.44;85.19;95183.31;5053258;28;20195;-74
2021/01/08 07:28:50;;;;;;;5.57;3.90;;;;;;;-2.45;85.07;95183.41;5053251;28;20596;-74
2021/01/08 07:31:16;;;;;;;5.97;3.23;;;;;;;-2.45;84.88;95188.50;5056257;28;20348;-75
2021/01/08 07:33:46;;;;;;;5.67;3.80;;;;;;;-2.46;84.79;95194.47;5057021;28;20274;-74
2021/01/08 07:36:19;;;;;;;5.57;3.93;;;;;;;-2.43;84.87;95196.84;5057017;28;20182;-75
2021/01/08 07:38:44;;;;;;;5.37;4.33;;;;;;;-2.44;85.10;95195.22;5073333;28;20179;-74
2021/01/08 07:41:10;;;;;;;6.57;4.60;;;;;;;-2.38;84.82;95200.00;5040315;28;20182;-74
2021/01/08 07:43:36;;;;;;;5.30;3.87;;;;;;;-2.38;84.50;95197.47;5055667;28;20207;-74
2021/01/08 07:46:02;;;;;;;5.00;4.20;;;;;;;-2.36;84.91;95203.28;5056960;28;20184;-74
2021/01/08 07:48:34;;;;;;;5.70;4.23;;;;;;;-2.37;84.50;95206.72;5056741;28;20194;-74
2021/01/08 07:51:10;;;;;;;7.97;4.70;;;;;;;-2.38;84.99;95205.91;5056827;28;20210;-74
2021/01/08 07:53:42;;;;;;;5.93;4.43;;;;;;;-2.33;84.78;95213.28;5055304;28;20723;-74
2021/01/08 07:56:08;;;;;;;5.50;4.20;;;;;;;-2.27;84.17;95223.16;5068335;28;20271;-74
2021/01/08 07:58:35;;;;;;;6.10;4.20;;;;;;;-2.24;84.20;95214.53;5076535;28;20199;-74
2021/01/08 08:01:04;;;;;;;6.77;4.43;;;;;;;-2.23;83.87;95214.47;5094838;28;20698;-75
2021/01/08 08:03:29;;;;;;;6.00;4.50;;;;;;;-2.17;84.19;95224.31;5071496;28;20208;-74
2021/01/08 08:05:55;;;;;;;5.13;4.33;;;;;;;-2.12;83.72;95224.91;5082626;28;20526;-74
2021/01/08 08:08:20;;;;;;;5.13;4.10;;;;;;;-2.18;83.62;95224.41;5057436;28;20227;-74
2021/01/08 08:10:46;;;;;;;5.50;4.17;;;;;;;-2.11;83.24;95223.19;5076275;28;20266;-74
2021/01/08 08:13:15;;;;;;;3.87;3.27;;;;;;;-2.21;82.49;95224.53;5076512;28;20606;-74
2021/01/08 08:15:47;;;;;;;4.07;3.67;;;;;;;-2.24;82.26;95230.63;5063368;28;20277;-74
2021/01/08 08:18:13;;;;;;;4.57;3.87;;;;;;;-2.20;82.12;95228.75;5042452;28;20193;-74
2021/01/08 08:20:38;;;;;;;5.30;4.40;;;;;;;-2.12;82.48;95232.56;5056099;28;20183;-74
2021/01/08 08:23:14;;;;;;;6.50;4.67;;;;;;;-2.12;82.14;95235.09;5056232;28;20563;-75
2021/01/08 08:25:39;;;;;;;6.20;4.50;;;;;;;-2.11;82.25;95246.09;5092059;28;20205;-75
2021/01/08 08:28:05;;;;;;;7.83;4.67;;;;;;;-1.97;81.48;95250.47;5085692;28;20217;-74
2021/01/08 08:30:30;;;;;;;4.40;3.43;;;;;;;-1.90;81.25;95251.78;5094138;28;20179;-75
2021/01/08 08:32:57;;;;;;;7.03;4.40;;;;;;;-1.87;81.17;95256.72;5068541;28;20180;-75
2021/01/08 08:35:23;;;;;;;5.17;3.93;;;;;;;-1.67;80.75;95259.06;5053964;28;20180;-74
2021/01/08 08:37:50;;;;;;;3.93;3.30;;;;;;;-1.60;80.72;95260.34;5069044;28;20293;-75
2021/01/08 08:40:15;;;;;;;4.00;3.60;;;;;;;-1.55;80.72;95253.31;5041836;28;20188;-76
2021/01/08 08:42:41;;;;;;;5.60;4.23;;;;;;;-1.59;80.42;95266.25;5046622;28;20559;-77
2021/01/08 08:45:26;;;;;;;4.33;3.80;;;;;;;-1.60;80.49;95267.16;5038635;28;20177;-75
2021/01/08 08:47:54;;;;;;;5.20;3.53;;;;;;;-1.47;80.39;95261.34;5069654;28;20219;-74
2021/01/08 08:50:20;;;;;;;5.70;4.43;;;;;;;-1.28;80.06;95271.38;5053920;28;20235;-74
2021/01/08 08:52:46;;;;;;;5.80;4.70;;;;;;;-1.24;79.87;95272.84;5055585;28;20622;-75
2021/01/08 08:55:28;;;;;;;6.13;4.63;;;;;;;-1.18;79.60;95271.69;5038590;28;20237;-75
2021/01/08 08:58:23;;;;;;;6.13;4.37;;;;;;;-1.09;78.96;95272.91;5059297;28;20204;-75
2021/01/08 09:00:51;;;;;;;5.57;4.40;;;;;;;-1.04;78.88;95273.50;5017048;28;20740;-75
2021/01/08 09:03:19;;;;;;;7.90;4.60;;;;;;;-1.11;78.66;95278.09;5022759;28;20218;-75
2021/01/08 09:05:46;;;;;;;5.83;4.53;;;;;;;-0.91;78.53;95272.72;5036344;28;20190;-75
2021/01/08 09:08:36;;;;;;;6.43;4.53;;;;;;;-0.95;78.00;95270.44;5025138;28;20224;-75
2021/01/08 09:11:04;;;;;;;6.67;4.67;;;;;;;-0.71;78.33;95269.03;5008866;28;20314;-75
2021/01/08 09:13:52;;;;;;;7.60;4.17;;;;;;;-0.72;77.49;95272.50;5034741;28;20193;-75
2021/01/08 09:16:28;;;;;;;5.97;4.60;;;;;;;-0.84;77.50;95278.31;5033815;28;20189;-75
2021/01/08 09:19:07;;;;;;;5.77;4.30;;;;;;;-0.69;77.04;95274.09;5025228;28;20194;-75
2021/01/08 09:21:48;;;;;;;6.43;4.70;;;;;;;-0.57;77.21;95278.47;5038608;28;20192;-74
2021/01/08 09:24:18;;;;;;;6.87;4.23;;;;;;;-0.92;77.88;95268.53;5030998;28;20811;-75
2021/01/08 09:26:44;;;;;;;6.90;4.93;;;;;;;-0.80;78.33;95273.84;5033708;28;20212;-74
2021/01/08 09:29:10;;;;;;;4.93;4.43;;;;;;;-0.58;77.64;95279.41;5027332;28;20599;-75
2021/01/08 09:31:43;;;;;;;6.43;5.20;;;;;;;-0.49;77.58;95285.72;5005734;28;20198;-76
2021/01/08 09:34:10;;;;;;;5.53;4.90;;;;;;;-0.63;76.95;95278.81;5030279;28;20171;-75
2021/01/08 09:36:39;;;;;;;6.80;4.63;;;;;;;-0.50;76.93;95281.50;5022095;28;20213;-74
2021/01/08 09:39:09;;;;;;;5.63;4.87;;;;;;;-0.52;77.23;95280.78;5054396;28;20184;-75
2021/01/08 09:41:35;;;;;;;7.13;5.43;;;;;;;-0.58;76.82;95282.75;5052410;28;20195;-76
2021/01/08 09:44:02;;;;;;;6.23;4.73;;;;;;;-0.64;77.32;95285.66;5072218;28;20688;-75
2021/01/08 09:46:28;;;;;;;7.07;4.90;;;;;;;-0.74;77.55;95288.81;5054111;28;20185;-76
2021/01/08 09:48:54;;;;;;;6.77;5.37;;;;;;;-0.76;76.93;95293.19;5052822;28;20192;-74
2021/01/08 09:51:19;;;;;;;6.67;5.47;;;;;;;-0.77;77.21;95289.00;5053437;28;20230;-73
2021/01/08 09:53:54;;;;;;;8.10;5.63;;;;;;;-0.97;76.78;95284.97;5054368;28;20180;-75
2021/01/08 09:56:20;;;;;;;7.70;5.47;;;;;;;-0.70;76.02;95285.19;5054083;28;20275;-76
2021/01/08 09:58:45;;;;;;;7.23;5.40;;;;;;;-0.55;75.64;95286.88;5054258;28;20266;-74
2021/01/08 10:01:14;;;;;;;7.97;5.67;;;;;;;-0.84;75.39;95288.50;5035834;28;20181;-74
2021/01/08 10:03:49;;;;;;;8.00;6.17;;;;;;;-0.96;75.25;95291.75;5054646;28;20193;-74
2021/01/08 10:06:14;;;;;;;8.57;5.73;;;;;;;-1.06;75.50;95285.47;5037550;28;20273;-75
2021/01/08 10:08:40;;;;;;;8.00;5.97;;;;;;;-0.78;75.41;95284.81;5053767;28;20227;-74
2021/01/08 10:11:06;;;;;;;13.93;10.43;;;;;;;-0.53;74.07;95287.63;5070856;28;20212;-74
2021/01/08 10:13:32;;;;;;;7.20;5.87;;;;;;;-0.80;74.13;95291.69;5052956;28;20214;-74
2021/01/08 10:16:05;;;;;;;6.30;5.07;;;;;;;-0.78;74.50;95287.34;5054160;28;20227;-74
2021/01/08 10:18:32;;;;;;;7.13;5.07;;;;;;;-0.88;74.92;95290.41;5053897;28;20255;-76
2021/01/08 10:21:07;;;;;;;6.90;4.90;;;;;;;-0.86;73.69;95285.22;5037436;28;20188;-75
2021/01/08 10:23:42;;;;;;;11.57;7.27;;;;;;;-0.99;74.28;95289.34;5052432;28;20261;-74
2021/01/08 10:26:15;;;;;;;8.60;5.67;;;;;;;-1.06;73.96;95295.69;5039394;28;20184;-75
2021/01/08 10:28:49;;;;;;;6.73;5.80;;;;;;;-1.10;73.79;95289.13;5071703;28;20623;-74
2021/01/08 10:31:15;;;;;;;6.43;4.90;;;;;;;-1.06;73.07;95281.22;5037205;28;20282;-74
2021/01/08 10:33:41;;;;;;;8.53;5.30;;;;;;;-0.99;73.35;95289.34;5052649;28;20597;-74
2021/01/08 10:36:06;;;;;;;7.10;5.33;;;;;;;-1.04;73.19;95293.88;5071555;28;20181;-74
2021/01/08 10:38:31;;;;;;;6.97;5.33;;;;;;;-1.00;72.32;95287.69;5053499;28;20235;-74
2021/01/08 10:40:57;;;;;;;6.60;4.50;;;;;;;-1.10;73.13;95295.03;5037045;28;20237;-75
2021/01/08 10:43:22;;;;;;;5.17;4.67;;;;;;;-0.89;73.23;95283.66;5053661;28;20219;-74
2021/01/08 10:45:47;;;;;;;7.90;5.30;;;;;;;-0.75;72.85;95287.16;5070316;28;20607;-75
2021/01/08 10:48:13;;;;;;;6.37;5.03;;;;;;;-0.63;71.94;95284.75;5053319;28;20218;-74
2021/01/08 10:50:38;;;;;;;8.83;5.23;;;;;;;-0.44;71.32;95289.66;5053442;28;20191;-75
2021/01/08 10:53:03;;;;;;;8.03;5.20;;;;;;;-0.39;71.70;95290.19;5070066;28;20195;-76
2021/01/08 10:55:29;;;;;;;6.57;5.23;;;;;;;-0.39;72.02;95290.19;5052398;28;20602;-74
2021/01/08 10:57:55;;;;;;;6.47;4.93;;;;;;;-0.59;72.38;95288.78;5071259;28;20291;-75
2021/01/08 11:00:21;;;;;;;6.80;4.70;;;;;;;-0.52;71.63;95285.88;5053354;28;20207;-75
2021/01/08 11:02:46;;;;;;;6.70;4.57;;;;;;;-0.64;71.81;95285.66;5036689;28;20636;-74
2021/01/08 11:05:12;;;;;;;6.70;4.93;;;;;;;-0.34;71.79;95277.19;5053827;28;20275;-76
2021/01/08 11:07:37;;;;;;;7.90;5.33;;;;;;;-0.26;71.11;95274.19;5089615;28;20572;-74
2021/01/08 11:10:04;;;;;;;6.97;5.27;;;;;;;-0.27;70.47;95278.44;5056896;28;20820;-75
2021/01/08 11:12:31;;;;;;;7.87;5.17;;;;;;;-0.10;70.50;95275.75;5075598;28;20714;-75
2021/01/08 11:14:57;;;;;;;6.33;4.93;;;;;;;-0.04;70.41;95282.22;5075333;28;20200;-75
2021/01/08 11:17:22;;;;;;;5.83;4.80;;;;;;;-0.04;70.44;95272.84;5038829;28;20660;-75
2021/01/08 11:19:47;;;;;;;7.30;5.43;;;;;;;-0.20;71.70;95278.91;5057156;28;20258;-74
2021/01/08 11:22:13;;;;;;;8.67;5.57;;;;;;;-0.04;71.51;95272.00;5057725;28;20264;-75
2021/01/08 11:24:38;;;;;;;7.53;4.93;;;;;;;0.12;71.46;95270.19;5057239;28;20210;-76
2021/01/08 11:27:04;;;;;;;8.93;6.10;;;;;;;-0.15;71.55;95271.84;5073174;28;20208;-74
2021/01/08 11:29:30;;;;;;;7.43;5.47;;;;;;;-0.32;72.65;95273.63;5074742;28;20188;-74
2021/01/08 11:31:55;;;;;;;7.90;5.83;;;;;;;-0.33;72.84;95282.19;5057007;28;20187;-74
2021/01/08 11:34:21;;;;;;;8.63;6.17;;;;;;;-0.39;73.03;95266.41;5074089;28;20238;-75